sensor_id;sensor_type;location;lat;lon;timestamp;P1;durP1;ratioP1;P2;durP2;ratioP2
45842;SDS011;31563;51.744;8.252;2022-07-03T00:00:03;1.55;;;0.40;;
45842;SDS011;31563;51.744;8.252;2022-07-03T00:02:31;1.10;;;0.33;;
45842;SDS011;31563;51.744;8.252;2022-07-03T00:05:01;2.08;;;0.50;;
45842;SDS011;31563;51.744;8.252;2022-07-03T00:09:58;2.40;;;0.40;;
45842;SDS011;31563;51.744;8.252;2022-07-03T00:12:26;2.97;;;0.50;;
45842;SDS011;31563;51.744;8.252;2022-07-03T00:14:54;0.38;;;0.30;;
45842;SDS011;31563;51.744;8.252;2022-07-03T00:17:22;0.98;;;0.40;;
45842;SDS011;31563;51.744;8.252;2022-07-03T00:19:50;0.90;;;0.35;;
45842;SDS011;31563;51.744;8.252;2022-07-03T00:22:20;0.40;;;0.30;;
45842;SDS011;31563;51.744;8.252;2022-07-03T00:24:52;2.22;;;0.40;;
45842;SDS011;31563;51.744;8.252;2022-07-03T00:27:23;1.50;;;0.40;;
45842;SDS011;31563;51.744;8.252;2022-07-03T00:29:53;1.83;;;0.40;;
45842;SDS011;31563;51.744;8.252;2022-07-03T00:32:25;1.20;;;0.40;;
45842;SDS011;31563;51.744;8.252;2022-07-03T00:34:54;2.60;;;0.70;;
45842;SDS011;31563;51.744;8.252;2022-07-03T00:37:25;1.20;;;0.50;;
45842;SDS011;31563;51.744;8.252;2022-07-03T00:39:53;1.30;;;0.40;;
45842;SDS011;31563;51.744;8.252;2022-07-03T00:42:22;1.13;;;0.65;;
45842;SDS011;31563;51.744;8.252;2022-07-03T00:44:51;1.20;;;0.50;;
45842;SDS011;31563;51.744;8.252;2022-07-03T00:47:21;1.40;;;0.40;;
45842;SDS011;31563;51.744;8.252;2022-07-03T00:49:51;1.58;;;0.65;;
45842;SDS011;31563;51.744;8.252;2022-07-03T00:52:21;1.42;;;0.55;;
45842;SDS011;31563;51.744;8.252;2022-07-03T00:57:21;0.85;;;0.50;;
45842;SDS011;31563;51.744;8.252;2022-07-03T00:59:50;1.00;;;0.60;;
45842;SDS011;31563;51.744;8.252;2022-07-03T01:02:27;1.42;;;0.60;;
45842;SDS011;31563;51.744;8.252;2022-07-03T01:05:15;1.70;;;0.50;;
45842;SDS011;31563;51.744;8.252;2022-07-03T01:07:54;1.40;;;0.50;;
45842;SDS011;31563;51.744;8.252;2022-07-03T01:10:37;2.60;;;0.60;;
45842;SDS011;31563;51.744;8.252;2022-07-03T01:13:13;1.10;;;0.47;;
45842;SDS011;31563;51.744;8.252;2022-07-03T01:15:49;1.40;;;0.50;;
45842;SDS011;31563;51.744;8.252;2022-07-03T01:18:35;1.25;;;0.60;;
45842;SDS011;31563;51.744;8.252;2022-07-03T01:21:08;1.40;;;0.50;;
45842;SDS011;31563;51.744;8.252;2022-07-03T01:26:52;2.03;;;0.50;;
45842;SDS011;31563;51.744;8.252;2022-07-03T01:29:26;1.45;;;0.50;;
45842;SDS011;31563;51.744;8.252;2022-07-03T01:31:58;1.85;;;0.55;;
45842;SDS011;31563;51.744;8.252;2022-07-03T01:34:29;1.90;;;0.55;;
45842;SDS011;31563;51.744;8.252;2022-07-03T01:37:01;1.23;;;0.60;;
45842;SDS011;31563;51.744;8.252;2022-07-03T01:39:31;1.52;;;0.60;;
45842;SDS011;31563;51.744;8.252;2022-07-03T01:42:21;2.95;;;0.73;;
45842;SDS011;31563;51.744;8.252;2022-07-03T01:44:51;1.45;;;0.40;;
45842;SDS011;31563;51.744;8.252;2022-07-03T01:47:22;1.48;;;0.65;;
45842;SDS011;31563;51.744;8.252;2022-07-03T01:49:54;2.80;;;0.88;;
45842;SDS011;31563;51.744;8.252;2022-07-03T01:52:22;1.27;;;0.60;;
45842;SDS011;31563;51.744;8.252;2022-07-03T01:55:11;1.48;;;0.57;;
45842;SDS011;31563;51.744;8.252;2022-07-03T01:57:43;1.15;;;0.70;;
45842;SDS011;31563;51.744;8.252;2022-07-03T02:00:13;1.20;;;0.63;;
45842;SDS011;31563;51.744;8.252;2022-07-03T02:02:45;1.88;;;0.88;;
45842;SDS011;31563;51.744;8.252;2022-07-03T02:05:27;2.35;;;0.63;;
45842;SDS011;31563;51.744;8.252;2022-07-03T02:08:00;1.52;;;0.82;;
45842;SDS011;31563;51.744;8.252;2022-07-03T02:10:37;0.98;;;0.60;;
45842;SDS011;31563;51.744;8.252;2022-07-03T02:13:15;0.80;;;0.50;;
45842;SDS011;31563;51.744;8.252;2022-07-03T02:15:45;1.15;;;0.60;;
45842;SDS011;31563;51.744;8.252;2022-07-03T02:18:21;1.73;;;0.70;;
45842;SDS011;31563;51.744;8.252;2022-07-03T02:20:56;1.90;;;0.60;;
45842;SDS011;31563;51.744;8.252;2022-07-03T02:23:31;2.13;;;0.68;;
45842;SDS011;31563;51.744;8.252;2022-07-03T02:26:04;0.95;;;0.70;;
45842;SDS011;31563;51.744;8.252;2022-07-03T02:28:44;1.42;;;0.57;;
45842;SDS011;31563;51.744;8.252;2022-07-03T02:31:23;1.88;;;0.50;;
45842;SDS011;31563;51.744;8.252;2022-07-03T02:33:55;2.00;;;0.60;;
45842;SDS011;31563;51.744;8.252;2022-07-03T02:36:27;1.58;;;0.57;;
45842;SDS011;31563;51.744;8.252;2022-07-03T02:38:57;0.90;;;0.52;;
45842;SDS011;31563;51.744;8.252;2022-07-03T02:41:28;0.98;;;0.60;;
45842;SDS011;31563;51.744;8.252;2022-07-03T02:44:10;0.80;;;0.60;;
45842;SDS011;31563;51.744;8.252;2022-07-03T02:46:51;2.83;;;0.52;;
45842;SDS011;31563;51.744;8.252;2022-07-03T02:52:22;1.02;;;0.40;;
45842;SDS011;31563;51.744;8.252;2022-07-03T02:54:57;0.88;;;0.40;;
45842;SDS011;31563;51.744;8.252;2022-07-03T02:57:33;2.22;;;0.60;;
45842;SDS011;31563;51.744;8.252;2022-07-03T03:00:09;4.28;;;0.82;;
45842;SDS011;31563;51.744;8.252;2022-07-03T03:02:42;3.00;;;0.90;;
45842;SDS011;31563;51.744;8.252;2022-07-03T03:05:26;3.33;;;0.80;;
45842;SDS011;31563;51.744;8.252;2022-07-03T03:10:46;2.47;;;0.60;;
45842;SDS011;31563;51.744;8.252;2022-07-03T03:13:15;2.47;;;0.70;;
45842;SDS011;31563;51.744;8.252;2022-07-03T03:15:57;1.67;;;0.60;;
45842;SDS011;31563;51.744;8.252;2022-07-03T03:18:28;4.22;;;0.70;;
45842;SDS011;31563;51.744;8.252;2022-07-03T03:20:58;6.60;;;0.60;;
45842;SDS011;31563;51.744;8.252;2022-07-03T03:23:30;2.78;;;0.70;;
45842;SDS011;31563;51.744;8.252;2022-07-03T03:26:05;1.48;;;0.50;;
45842;SDS011;31563;51.744;8.252;2022-07-03T03:28:33;1.90;;;0.63;;
45842;SDS011;31563;51.744;8.252;2022-07-03T03:31:03;1.25;;;0.50;;
45842;SDS011;31563;51.744;8.252;2022-07-03T03:33:35;4.18;;;0.85;;
45842;SDS011;31563;51.744;8.252;2022-07-03T03:36:07;2.55;;;0.50;;
45842;SDS011;31563;51.744;8.252;2022-07-03T03:38:36;1.38;;;0.70;;
45842;SDS011;31563;51.744;8.252;2022-07-03T03:41:05;1.90;;;0.50;;
45842;SDS011;31563;51.744;8.252;2022-07-03T03:43:40;2.28;;;0.68;;
45842;SDS011;31563;51.744;8.252;2022-07-03T03:46:10;4.18;;;1.20;;
45842;SDS011;31563;51.744;8.252;2022-07-03T03:48:38;2.22;;;0.70;;
45842;SDS011;31563;51.744;8.252;2022-07-03T03:51:06;3.05;;;1.00;;
45842;SDS011;31563;51.744;8.252;2022-07-03T03:53:35;2.58;;;0.68;;
45842;SDS011;31563;51.744;8.252;2022-07-03T03:56:04;2.10;;;0.70;;
45842;SDS011;31563;51.744;8.252;2022-07-03T03:58:35;3.28;;;0.95;;
45842;SDS011;31563;51.744;8.252;2022-07-03T04:01:05;1.88;;;0.70;;
45842;SDS011;31563;51.744;8.252;2022-07-03T04:03:36;2.20;;;0.80;;
45842;SDS011;31563;51.744;8.252;2022-07-03T04:06:05;1.45;;;0.50;;
45842;SDS011;31563;51.744;8.252;2022-07-03T04:08:33;2.08;;;0.70;;
45842;SDS011;31563;51.744;8.252;2022-07-03T04:11:01;2.15;;;0.80;;
45842;SDS011;31563;51.744;8.252;2022-07-03T04:13:29;1.33;;;0.85;;
45842;SDS011;31563;51.744;8.252;2022-07-03T04:15:58;1.60;;;0.90;;
45842;SDS011;31563;51.744;8.252;2022-07-03T04:18:26;3.53;;;0.90;;
45842;SDS011;31563;51.744;8.252;2022-07-03T04:20:59;2.35;;;1.00;;
45842;SDS011;31563;51.744;8.252;2022-07-03T04:26:01;2.80;;;1.17;;
45842;SDS011;31563;51.744;8.252;2022-07-03T04:28:30;2.05;;;0.80;;
45842;SDS011;31563;51.744;8.252;2022-07-03T04:30:59;3.50;;;1.00;;
45842;SDS011;31563;51.744;8.252;2022-07-03T04:33:27;2.10;;;0.77;;
45842;SDS011;31563;51.744;8.252;2022-07-03T04:35:55;2.63;;;1.10;;
45842;SDS011;31563;51.744;8.252;2022-07-03T04:38:25;1.42;;;0.80;;
45842;SDS011;31563;51.744;8.252;2022-07-03T04:40:53;2.25;;;1.00;;
45842;SDS011;31563;51.744;8.252;2022-07-03T04:43:21;2.25;;;0.75;;
45842;SDS011;31563;51.744;8.252;2022-07-03T04:45:49;1.60;;;0.80;;
45842;SDS011;31563;51.744;8.252;2022-07-03T04:48:17;2.50;;;0.90;;
45842;SDS011;31563;51.744;8.252;2022-07-03T04:50:45;3.28;;;1.10;;
45842;SDS011;31563;51.744;8.252;2022-07-03T04:53:14;2.17;;;1.08;;
45842;SDS011;31563;51.744;8.252;2022-07-03T04:55:43;2.58;;;1.10;;
45842;SDS011;31563;51.744;8.252;2022-07-03T04:58:11;1.95;;;1.25;;
45842;SDS011;31563;51.744;8.252;2022-07-03T05:00:39;2.58;;;1.00;;
45842;SDS011;31563;51.744;8.252;2022-07-03T05:03:10;2.15;;;1.23;;
45842;SDS011;31563;51.744;8.252;2022-07-03T05:05:38;2.83;;;1.00;;
45842;SDS011;31563;51.744;8.252;2022-07-03T05:08:06;1.50;;;0.77;;
45842;SDS011;31563;51.744;8.252;2022-07-03T05:10:35;2.65;;;0.98;;
45842;SDS011;31563;51.744;8.252;2022-07-03T05:13:06;2.28;;;0.80;;
45842;SDS011;31563;51.744;8.252;2022-07-03T05:15:34;1.70;;;1.05;;
45842;SDS011;31563;51.744;8.252;2022-07-03T05:18:03;2.92;;;1.27;;
45842;SDS011;31563;51.744;8.252;2022-07-03T05:20:31;3.00;;;1.00;;
45842;SDS011;31563;51.744;8.252;2022-07-03T05:23:00;1.80;;;1.05;;
45842;SDS011;31563;51.744;8.252;2022-07-03T05:27:58;2.35;;;1.13;;
45842;SDS011;31563;51.744;8.252;2022-07-03T05:32:57;1.60;;;1.08;;
45842;SDS011;31563;51.744;8.252;2022-07-03T05:35:25;2.03;;;1.10;;
45842;SDS011;31563;51.744;8.252;2022-07-03T05:37:53;1.90;;;1.08;;
45842;SDS011;31563;51.744;8.252;2022-07-03T05:40:21;2.33;;;1.23;;
45842;SDS011;31563;51.744;8.252;2022-07-03T05:42:48;3.20;;;1.05;;
45842;SDS011;31563;51.744;8.252;2022-07-03T05:45:16;2.45;;;1.10;;
45842;SDS011;31563;51.744;8.252;2022-07-03T05:47:46;1.80;;;1.05;;
45842;SDS011;31563;51.744;8.252;2022-07-03T05:50:14;4.20;;;1.20;;
45842;SDS011;31563;51.744;8.252;2022-07-03T05:52:43;3.00;;;0.98;;
45842;SDS011;31563;51.744;8.252;2022-07-03T05:55:11;1.73;;;0.98;;
45842;SDS011;31563;51.744;8.252;2022-07-03T05:57:39;3.05;;;1.15;;
45842;SDS011;31563;51.744;8.252;2022-07-03T06:00:08;1.92;;;1.25;;
45842;SDS011;31563;51.744;8.252;2022-07-03T06:02:37;1.73;;;1.20;;
45842;SDS011;31563;51.744;8.252;2022-07-03T06:05:07;2.42;;;0.90;;
45842;SDS011;31563;51.744;8.252;2022-07-03T06:07:35;2.30;;;1.10;;
45842;SDS011;31563;51.744;8.252;2022-07-03T06:10:04;2.10;;;1.15;;
45842;SDS011;31563;51.744;8.252;2022-07-03T06:12:33;3.25;;;1.63;;
45842;SDS011;31563;51.744;8.252;2022-07-03T06:15:01;2.95;;;1.30;;
45842;SDS011;31563;51.744;8.252;2022-07-03T06:17:29;2.40;;;1.40;;
45842;SDS011;31563;51.744;8.252;2022-07-03T06:19:57;2.80;;;1.20;;
45842;SDS011;31563;51.744;8.252;2022-07-03T06:22:26;2.65;;;1.20;;
45842;SDS011;31563;51.744;8.252;2022-07-03T06:24:55;1.80;;;0.80;;
45842;SDS011;31563;51.744;8.252;2022-07-03T06:27:23;2.88;;;1.35;;
45842;SDS011;31563;51.744;8.252;2022-07-03T06:29:51;3.33;;;1.33;;
45842;SDS011;31563;51.744;8.252;2022-07-03T06:32:19;2.13;;;1.30;;
45842;SDS011;31563;51.744;8.252;2022-07-03T06:34:47;4.43;;;1.30;;
45842;SDS011;31563;51.744;8.252;2022-07-03T06:37:15;4.57;;;1.48;;
45842;SDS011;31563;51.744;8.252;2022-07-03T06:39:45;2.40;;;1.38;;
45842;SDS011;31563;51.744;8.252;2022-07-03T06:42:13;2.35;;;1.10;;
45842;SDS011;31563;51.744;8.252;2022-07-03T06:44:41;3.42;;;1.50;;
45842;SDS011;31563;51.744;8.252;2022-07-03T06:47:17;4.80;;;1.70;;
45842;SDS011;31563;51.744;8.252;2022-07-03T06:49:45;2.80;;;1.08;;
45842;SDS011;31563;51.744;8.252;2022-07-03T06:52:13;3.58;;;1.50;;
45842;SDS011;31563;51.744;8.252;2022-07-03T06:54:42;1.80;;;1.30;;
45842;SDS011;31563;51.744;8.252;2022-07-03T06:57:12;3.25;;;1.65;;
45842;SDS011;31563;51.744;8.252;2022-07-03T06:59:41;4.47;;;1.83;;
45842;SDS011;31563;51.744;8.252;2022-07-03T07:02:09;5.07;;;1.83;;
45842;SDS011;31563;51.744;8.252;2022-07-03T07:04:38;3.45;;;1.50;;
45842;SDS011;31563;51.744;8.252;2022-07-03T07:07:06;3.50;;;1.77;;
45842;SDS011;31563;51.744;8.252;2022-07-03T07:09:34;2.13;;;1.20;;
45842;SDS011;31563;51.744;8.252;2022-07-03T07:12:02;3.33;;;1.17;;
45842;SDS011;31563;51.744;8.252;2022-07-03T07:14:32;1.58;;;0.80;;
45842;SDS011;31563;51.744;8.252;2022-07-03T07:17:01;3.25;;;1.17;;
45842;SDS011;31563;51.744;8.252;2022-07-03T07:19:29;2.40;;;1.08;;
45842;SDS011;31563;51.744;8.252;2022-07-03T07:21:57;3.35;;;0.95;;
45842;SDS011;31563;51.744;8.252;2022-07-03T07:26:55;3.08;;;0.98;;
45842;SDS011;31563;51.744;8.252;2022-07-03T07:29:23;3.28;;;1.05;;
45842;SDS011;31563;51.744;8.252;2022-07-03T07:31:52;6.15;;;0.98;;
45842;SDS011;31563;51.744;8.252;2022-07-03T07:36:49;4.15;;;0.73;;
45842;SDS011;31563;51.744;8.252;2022-07-03T07:39:17;2.10;;;0.90;;
45842;SDS011;31563;51.744;8.252;2022-07-03T07:41:45;2.58;;;0.47;;
45842;SDS011;31563;51.744;8.252;2022-07-03T07:44:13;4.88;;;1.20;;
45842;SDS011;31563;51.744;8.252;2022-07-03T07:46:45;3.28;;;0.75;;
45842;SDS011;31563;51.744;8.252;2022-07-03T07:49:14;2.40;;;0.82;;
45842;SDS011;31563;51.744;8.252;2022-07-03T07:51:42;2.58;;;0.63;;
45842;SDS011;31563;51.744;8.252;2022-07-03T07:54:11;2.35;;;0.75;;
45842;SDS011;31563;51.744;8.252;2022-07-03T07:56:39;2.13;;;0.60;;
45842;SDS011;31563;51.744;8.252;2022-07-03T07:59:07;1.95;;;0.88;;
45842;SDS011;31563;51.744;8.252;2022-07-03T08:01:36;1.88;;;0.65;;
45842;SDS011;31563;51.744;8.252;2022-07-03T08:04:23;3.38;;;0.80;;
45842;SDS011;31563;51.744;8.252;2022-07-03T08:07:20;1.75;;;0.60;;
45842;SDS011;31563;51.744;8.252;2022-07-03T08:09:48;2.35;;;0.68;;
45842;SDS011;31563;51.744;8.252;2022-07-03T08:12:19;1.85;;;0.60;;
45842;SDS011;31563;51.744;8.252;2022-07-03T08:14:47;1.40;;;0.50;;
45842;SDS011;31563;51.744;8.252;2022-07-03T08:17:15;2.05;;;0.60;;
45842;SDS011;31563;51.744;8.252;2022-07-03T08:19:45;1.25;;;0.50;;
45842;SDS011;31563;51.744;8.252;2022-07-03T08:22:13;1.58;;;0.65;;
45842;SDS011;31563;51.744;8.252;2022-07-03T08:24:41;1.58;;;0.40;;
45842;SDS011;31563;51.744;8.252;2022-07-03T08:27:10;1.27;;;0.50;;
45842;SDS011;31563;51.744;8.252;2022-07-03T08:29:38;2.95;;;0.50;;
45842;SDS011;31563;51.744;8.252;2022-07-03T08:32:07;2.43;;;0.63;;
45842;SDS011;31563;51.744;8.252;2022-07-03T08:34:36;5.80;;;0.50;;
45842;SDS011;31563;51.744;8.252;2022-07-03T08:37:05;3.95;;;0.63;;
45842;SDS011;31563;51.744;8.252;2022-07-03T08:42:01;1.35;;;0.60;;
45842;SDS011;31563;51.744;8.252;2022-07-03T08:44:31;1.13;;;0.45;;
45842;SDS011;31563;51.744;8.252;2022-07-03T08:47:02;4.93;;;0.73;;
45842;SDS011;31563;51.744;8.252;2022-07-03T08:52:00;2.03;;;0.47;;
45842;SDS011;31563;51.744;8.252;2022-07-03T08:54:30;1.27;;;0.40;;
45842;SDS011;31563;51.744;8.252;2022-07-03T08:57:00;3.38;;;0.43;;
45842;SDS011;31563;51.744;8.252;2022-07-03T08:59:28;6.70;;;0.68;;
45842;SDS011;31563;51.744;8.252;2022-07-03T09:02:02;2.03;;;0.50;;
45842;SDS011;31563;51.744;8.252;2022-07-03T09:04:31;4.38;;;0.80;;
45842;SDS011;31563;51.744;8.252;2022-07-03T09:07:00;2.10;;;0.50;;
45842;SDS011;31563;51.744;8.252;2022-07-03T09:09:28;2.40;;;0.43;;
45842;SDS011;31563;51.744;8.252;2022-07-03T09:11:59;3.70;;;0.88;;
45842;SDS011;31563;51.744;8.252;2022-07-03T09:14:27;2.28;;;0.65;;
45842;SDS011;31563;51.744;8.252;2022-07-03T09:16:56;0.87;;;0.40;;
45842;SDS011;31563;51.744;8.252;2022-07-03T09:19:38;1.52;;;0.40;;
45842;SDS011;31563;51.744;8.252;2022-07-03T09:22:16;2.33;;;0.40;;
45842;SDS011;31563;51.744;8.252;2022-07-03T09:24:49;1.88;;;0.45;;
45842;SDS011;31563;51.744;8.252;2022-07-03T09:27:19;3.10;;;0.40;;
45842;SDS011;31563;51.744;8.252;2022-07-03T09:32:27;1.60;;;0.30;;
45842;SDS011;31563;51.744;8.252;2022-07-03T09:35:15;1.17;;;0.50;;
45842;SDS011;31563;51.744;8.252;2022-07-03T09:37:52;1.10;;;0.30;;
45842;SDS011;31563;51.744;8.252;2022-07-03T09:40:23;1.10;;;0.38;;
45842;SDS011;31563;51.744;8.252;2022-07-03T09:42:59;2.38;;;0.47;;
45842;SDS011;31563;51.744;8.252;2022-07-03T09:45:47;3.22;;;0.52;;
45842;SDS011;31563;51.744;8.252;2022-07-03T09:48:20;2.97;;;0.60;;
45842;SDS011;31563;51.744;8.252;2022-07-03T09:51:09;2.38;;;0.38;;
45842;SDS011;31563;51.744;8.252;2022-07-03T09:53:51;2.33;;;0.47;;
45842;SDS011;31563;51.744;8.252;2022-07-03T09:56:26;4.00;;;1.05;;
45842;SDS011;31563;51.744;8.252;2022-07-03T09:59:03;8.10;;;1.88;;
45842;SDS011;31563;51.744;8.252;2022-07-03T10:01:34;4.97;;;1.13;;
45842;SDS011;31563;51.744;8.252;2022-07-03T10:04:10;5.00;;;0.50;;
45842;SDS011;31563;51.744;8.252;2022-07-03T10:06:53;5.13;;;0.80;;
45842;SDS011;31563;51.744;8.252;2022-07-03T10:09:23;5.40;;;0.82;;
45842;SDS011;31563;51.744;8.252;2022-07-03T10:11:54;2.45;;;0.52;;
45842;SDS011;31563;51.744;8.252;2022-07-03T10:14:23;2.15;;;0.30;;
45842;SDS011;31563;51.744;8.252;2022-07-03T10:16:53;3.25;;;0.40;;
45842;SDS011;31563;51.744;8.252;2022-07-03T10:19:25;2.65;;;0.50;;
45842;SDS011;31563;51.744;8.252;2022-07-03T10:21:54;3.95;;;0.40;;
45842;SDS011;31563;51.744;8.252;2022-07-03T10:24:24;0.70;;;0.30;;
45842;SDS011;31563;51.744;8.252;2022-07-03T10:26:56;1.85;;;0.55;;
45842;SDS011;31563;51.744;8.252;2022-07-03T10:29:26;1.35;;;0.50;;
45842;SDS011;31563;51.744;8.252;2022-07-03T10:31:55;3.08;;;0.50;;
45842;SDS011;31563;51.744;8.252;2022-07-03T10:34:25;2.53;;;0.30;;
45842;SDS011;31563;51.744;8.252;2022-07-03T10:36:56;3.65;;;0.35;;
45842;SDS011;31563;51.744;8.252;2022-07-03T10:39:35;3.03;;;0.57;;
45842;SDS011;31563;51.744;8.252;2022-07-03T10:42:11;4.28;;;0.47;;
45842;SDS011;31563;51.744;8.252;2022-07-03T10:45:04;1.60;;;0.40;;
45842;SDS011;31563;51.744;8.252;2022-07-03T10:47:38;1.20;;;0.40;;
45842;SDS011;31563;51.744;8.252;2022-07-03T10:50:08;0.95;;;0.40;;
45842;SDS011;31563;51.744;8.252;2022-07-03T10:52:38;0.52;;;0.30;;
45842;SDS011;31563;51.744;8.252;2022-07-03T10:55:08;4.82;;;0.52;;
45842;SDS011;31563;51.744;8.252;2022-07-03T10:57:39;3.05;;;0.40;;
45842;SDS011;31563;51.744;8.252;2022-07-03T11:00:17;3.15;;;0.60;;
45842;SDS011;31563;51.744;8.252;2022-07-03T11:02:47;2.22;;;0.40;;
45842;SDS011;31563;51.744;8.252;2022-07-03T11:05:18;4.38;;;0.50;;
45842;SDS011;31563;51.744;8.252;2022-07-03T11:10:45;1.08;;;0.40;;
45842;SDS011;31563;51.744;8.252;2022-07-03T11:13:37;0.82;;;0.20;;
45842;SDS011;31563;51.744;8.252;2022-07-03T11:16:45;1.83;;;0.30;;
45842;SDS011;31563;51.744;8.252;2022-07-03T11:19:13;1.30;;;0.30;;
45842;SDS011;31563;51.744;8.252;2022-07-03T11:21:42;1.50;;;0.20;;
45842;SDS011;31563;51.744;8.252;2022-07-03T11:24:27;1.33;;;0.40;;
45842;SDS011;31563;51.744;8.252;2022-07-03T11:27:18;2.50;;;0.45;;
45842;SDS011;31563;51.744;8.252;2022-07-03T11:29:51;1.27;;;0.30;;
45842;SDS011;31563;51.744;8.252;2022-07-03T11:35:43;0.60;;;0.22;;
45842;SDS011;31563;51.744;8.252;2022-07-03T11:40:47;1.23;;;0.40;;
45842;SDS011;31563;51.744;8.252;2022-07-03T11:43:17;2.58;;;0.45;;
45842;SDS011;31563;51.744;8.252;2022-07-03T11:45:47;1.50;;;0.30;;
45842;SDS011;31563;51.744;8.252;2022-07-03T11:48:17;2.20;;;0.70;;
45842;SDS011;31563;51.744;8.252;2022-07-03T11:50:46;4.03;;;0.70;;
45842;SDS011;31563;51.744;8.252;2022-07-03T11:53:22;2.08;;;0.50;;
45842;SDS011;31563;51.744;8.252;2022-07-03T11:55:54;2.42;;;0.40;;
45842;SDS011;31563;51.744;8.252;2022-07-03T11:58:24;3.17;;;0.60;;
45842;SDS011;31563;51.744;8.252;2022-07-03T12:00:54;2.38;;;0.50;;
45842;SDS011;31563;51.744;8.252;2022-07-03T12:03:24;2.45;;;0.50;;
45842;SDS011;31563;51.744;8.252;2022-07-03T12:46:20;2.13;;;0.60;;
45842;SDS011;31563;51.744;8.252;2022-07-03T12:48:50;2.67;;;0.73;;
45842;SDS011;31563;51.744;8.252;2022-07-03T12:54:10;1.95;;;0.32;;
45842;SDS011;31563;51.744;8.252;2022-07-03T12:56:40;2.45;;;0.50;;
45842;SDS011;31563;51.744;8.252;2022-07-03T12:59:24;0.90;;;0.40;;
45842;SDS011;31563;51.744;8.252;2022-07-03T13:02:02;2.35;;;0.50;;
45842;SDS011;31563;51.744;8.252;2022-07-03T13:04:32;1.50;;;0.68;;
45842;SDS011;31563;51.744;8.252;2022-07-03T13:07:02;2.88;;;0.50;;
45842;SDS011;31563;51.744;8.252;2022-07-03T13:09:32;1.85;;;0.60;;
45842;SDS011;31563;51.744;8.252;2022-07-03T13:12:01;5.22;;;0.52;;
45842;SDS011;31563;51.744;8.252;2022-07-03T13:14:30;4.43;;;0.47;;
45842;SDS011;31563;51.744;8.252;2022-07-03T13:16:58;0.85;;;0.43;;
45842;SDS011;31563;51.744;8.252;2022-07-03T13:19:28;1.40;;;0.43;;
45842;SDS011;31563;51.744;8.252;2022-07-03T13:21:57;2.00;;;0.50;;
45842;SDS011;31563;51.744;8.252;2022-07-03T13:24:25;1.42;;;0.50;;
45842;SDS011;31563;51.744;8.252;2022-07-03T13:26:54;1.73;;;0.57;;
45842;SDS011;31563;51.744;8.252;2022-07-03T13:29:24;1.75;;;0.50;;
45842;SDS011;31563;51.744;8.252;2022-07-03T13:31:53;2.90;;;0.57;;
45842;SDS011;31563;51.744;8.252;2022-07-03T13:34:21;3.03;;;0.60;;
45842;SDS011;31563;51.744;8.252;2022-07-03T13:36:51;3.43;;;0.67;;
45842;SDS011;31563;51.744;8.252;2022-07-03T13:39:19;5.68;;;0.70;;
45842;SDS011;31563;51.744;8.252;2022-07-03T13:41:47;2.00;;;0.60;;
45842;SDS011;31563;51.744;8.252;2022-07-03T13:44:15;1.00;;;0.40;;
45842;SDS011;31563;51.744;8.252;2022-07-03T13:46:43;5.47;;;0.80;;
45842;SDS011;31563;51.744;8.252;2022-07-03T13:49:16;4.03;;;0.65;;
45842;SDS011;31563;51.744;8.252;2022-07-03T13:54:15;5.70;;;0.70;;
45842;SDS011;31563;51.744;8.252;2022-07-03T13:56:43;1.13;;;0.43;;
45842;SDS011;31563;51.744;8.252;2022-07-03T13:59:11;2.55;;;0.50;;
45842;SDS011;31563;51.744;8.252;2022-07-03T14:01:40;0.93;;;0.50;;
45842;SDS011;31563;51.744;8.252;2022-07-03T14:04:08;6.65;;;0.65;;
45842;SDS011;31563;51.744;8.252;2022-07-03T14:06:36;3.80;;;0.50;;
45842;SDS011;31563;51.744;8.252;2022-07-03T14:09:05;1.87;;;0.23;;
45842;SDS011;31563;51.744;8.252;2022-07-03T14:11:34;2.97;;;0.50;;
45842;SDS011;31563;51.744;8.252;2022-07-03T14:14:02;2.28;;;0.52;;
45842;SDS011;31563;51.744;8.252;2022-07-03T14:16:31;1.40;;;0.40;;
45842;SDS011;31563;51.744;8.252;2022-07-03T14:18:59;3.27;;;0.60;;
45842;SDS011;31563;51.744;8.252;2022-07-03T14:21:29;5.63;;;0.50;;
45842;SDS011;31563;51.744;8.252;2022-07-03T14:23:58;2.45;;;0.50;;
45842;SDS011;31563;51.744;8.252;2022-07-03T14:26:26;1.33;;;0.67;;
45842;SDS011;31563;51.744;8.252;2022-07-03T14:29:13;3.97;;;0.50;;
45842;SDS011;31563;51.744;8.252;2022-07-03T14:31:58;3.28;;;0.50;;
45842;SDS011;31563;51.744;8.252;2022-07-03T14:34:44;1.60;;;0.50;;
45842;SDS011;31563;51.744;8.252;2022-07-03T14:37:17;1.80;;;0.40;;
45842;SDS011;31563;51.744;8.252;2022-07-03T14:39:45;1.20;;;0.40;;
45842;SDS011;31563;51.744;8.252;2022-07-03T14:42:14;2.07;;;0.50;;
45842;SDS011;31563;51.744;8.252;2022-07-03T14:44:43;3.40;;;0.40;;
45842;SDS011;31563;51.744;8.252;2022-07-03T14:47:12;8.10;;;0.77;;
45842;SDS011;31563;51.744;8.252;2022-07-03T14:52:09;6.47;;;0.60;;
45842;SDS011;31563;51.744;8.252;2022-07-03T14:54:37;11.73;;;1.02;;
45842;SDS011;31563;51.744;8.252;2022-07-03T14:57:15;5.10;;;0.80;;
45842;SDS011;31563;51.744;8.252;2022-07-03T14:59:57;8.65;;;1.05;;
45842;SDS011;31563;51.744;8.252;2022-07-03T15:02:38;6.28;;;0.90;;
45842;SDS011;31563;51.744;8.252;2022-07-03T15:05:15;4.47;;;1.08;;
45842;SDS011;31563;51.744;8.252;2022-07-03T15:10:19;3.90;;;0.70;;
45842;SDS011;31563;51.744;8.252;2022-07-03T15:12:49;3.85;;;0.38;;
45842;SDS011;31563;51.744;8.252;2022-07-03T15:15:20;1.83;;;0.45;;
45842;SDS011;31563;51.744;8.252;2022-07-03T15:17:50;1.50;;;0.40;;
45842;SDS011;31563;51.744;8.252;2022-07-03T15:20:19;3.08;;;0.55;;
45842;SDS011;31563;51.744;8.252;2022-07-03T15:22:48;1.33;;;0.40;;
45842;SDS011;31563;51.744;8.252;2022-07-03T15:30:20;4.05;;;0.43;;
45842;SDS011;31563;51.744;8.252;2022-07-03T15:32:50;2.10;;;0.77;;
45842;SDS011;31563;51.744;8.252;2022-07-03T15:35:19;2.15;;;0.40;;
45842;SDS011;31563;51.744;8.252;2022-07-03T15:37:58;4.88;;;0.50;;
45842;SDS011;31563;51.744;8.252;2022-07-03T15:40:40;1.88;;;0.73;;
45842;SDS011;31563;51.744;8.252;2022-07-03T15:43:23;1.75;;;0.77;;
45842;SDS011;31563;51.744;8.252;2022-07-03T15:46:08;2.90;;;0.70;;
45842;SDS011;31563;51.744;8.252;2022-07-03T15:48:48;3.03;;;0.50;;
45842;SDS011;31563;51.744;8.252;2022-07-03T15:51:29;3.13;;;0.50;;
45842;SDS011;31563;51.744;8.252;2022-07-03T15:54:07;3.08;;;0.50;;
45842;SDS011;31563;51.744;8.252;2022-07-03T15:56:38;2.42;;;0.30;;
45842;SDS011;31563;51.744;8.252;2022-07-03T15:59:12;2.25;;;0.43;;
45842;SDS011;31563;51.744;8.252;2022-07-03T16:01:45;1.15;;;0.43;;
45842;SDS011;31563;51.744;8.252;2022-07-03T16:04:40;1.63;;;0.30;;
45842;SDS011;31563;51.744;8.252;2022-07-03T16:07:17;2.10;;;0.50;;
45842;SDS011;31563;51.744;8.252;2022-07-03T16:09:47;2.75;;;0.60;;
45842;SDS011;31563;51.744;8.252;2022-07-03T16:12:15;2.42;;;0.63;;
45842;SDS011;31563;51.744;8.252;2022-07-03T16:14:46;1.13;;;0.50;;
45842;SDS011;31563;51.744;8.252;2022-07-03T16:17:17;2.88;;;0.50;;
45842;SDS011;31563;51.744;8.252;2022-07-03T16:19:46;1.05;;;0.50;;
45842;SDS011;31563;51.744;8.252;2022-07-03T16:22:16;1.48;;;0.50;;
45842;SDS011;31563;51.744;8.252;2022-07-03T16:24:45;4.32;;;0.40;;
45842;SDS011;31563;51.744;8.252;2022-07-03T16:27:16;2.20;;;0.50;;
45842;SDS011;31563;51.744;8.252;2022-07-03T16:29:45;1.52;;;0.40;;
45842;SDS011;31563;51.744;8.252;2022-07-03T16:32:18;1.08;;;0.40;;
45842;SDS011;31563;51.744;8.252;2022-07-03T16:34:50;1.17;;;0.40;;
45842;SDS011;31563;51.744;8.252;2022-07-03T16:37:25;2.40;;;0.50;;
45842;SDS011;31563;51.744;8.252;2022-07-03T16:39:59;1.13;;;0.40;;
45842;SDS011;31563;51.744;8.252;2022-07-03T16:42:32;1.60;;;0.28;;
45842;SDS011;31563;51.744;8.252;2022-07-03T16:45:03;4.45;;;0.70;;
45842;SDS011;31563;51.744;8.252;2022-07-03T16:47:39;3.45;;;0.50;;
45842;SDS011;31563;51.744;8.252;2022-07-03T16:50:11;2.17;;;0.50;;
45842;SDS011;31563;51.744;8.252;2022-07-03T16:52:44;1.48;;;0.40;;